Time;durP1;ratioP1;P1;durP2;ratioP2;P2;SDS_P1;SDS_P2;PMS_P1;PMS_P2;Temp;Humidity;BMP_temperature;BMP_pressure;BME280_temperature;BME280_humidity;BME280_pressure;Samples;Min_cycle;Max_cycle;Signal;HPM_P1;HPM_P2
2024/03/19 00:00:38;;;;;;;12.40;10.73;;;;;;;10.36;80.39;96345.56;4986000;28;20427;-70
2024/03/19 00:03:04;;;;;;;11.90;9.87;;;;;;;10.35;79.90;96344.72;4985770;28;20268;-69
2024/03/19 00:05:30;;;;;;;14.67;10.87;;;;;;;10.42;80.00;96355.78;4985921;28;20507;-68
2024/03/19 00:07:55;;;;;;;13.30;11.00;;;;;;;10.32;80.37;96347.47;4985985;28;21004;-69
2024/03/19 00:10:21;;;;;;;12.23;10.40;;;;;;;10.37;80.47;96350.75;4985849;28;20995;-69
2024/03/19 00:12:47;;;;;;;15.70;11.87;;;;;;;10.37;80.49;96349.91;4985854;28;20185;-70
2024/03/19 00:15:13;;;;;;;14.03;11.13;;;;;;;10.34;80.94;96358.72;4986539;28;20416;-70
2024/03/19 00:17:38;;;;;;;12.43;10.30;;;;;;;10.32;81.05;96347.47;4986525;28;20875;-68
2024/03/19 00:20:05;;;;;;;14.90;10.40;;;;;;;10.38;80.81;96351.59;4985923;28;20471;-70
2024/03/19 00:22:32;;;;;;;13.10;11.17;;;;;;;10.42;80.54;96354.91;4985867;28;20174;-69
2024/03/19 00:24:58;;;;;;;15.20;11.03;;;;;;;10.47;80.56;96356.44;4986128;28;20493;-69
2024/03/19 00:27:23;;;;;;;15.90;11.20;;;;;;;10.36;81.15;96353.41;4984341;28;20452;-69
2024/03/19 00:29:49;;;;;;;14.70;11.60;;;;;;;10.42;81.20;96353.16;4986283;28;20173;-70
2024/03/19 00:32:15;;;;;;;12.60;11.17;;;;;;;10.44;81.06;96345.22;4986249;28;20608;-70
2024/03/19 00:34:40;;;;;;;18.17;12.63;;;;;;;10.40;81.49;96349.75;4986786;28;20260;-69
2024/03/19 00:37:06;;;;;;;15.37;10.93;;;;;;;10.38;81.07;96341.09;4986418;28;20212;-69
2024/03/19 00:39:33;;;;;;;16.80;12.70;;;;;;;10.46;81.15;96348.63;4990255;28;20823;-70
2024/03/19 00:42:01;;;;;;;19.30;11.37;;;;;;;10.44;81.01;96334.72;4992334;28;20503;-72
2024/03/19 00:44:27;;;;;;;18.43;11.50;;;;;;;10.34;81.59;96340.38;4994517;28;20784;-70
2024/03/19 00:46:54;;;;;;;14.67;11.90;;;;;;;10.36;81.38;96335.06;4987943;28;20436;-69
2024/03/19 00:49:20;;;;;;;14.93;11.27;;;;;;;10.40;81.58;96331.38;4987196;28;20173;-69
2024/03/19 00:51:46;;;;;;;14.60;11.20;;;;;;;10.42;81.57;96333.94;4986773;28;20426;-71
2024/03/19 00:54:11;;;;;;;16.93;12.53;;;;;;;10.36;81.52;96342.94;4986926;28;20415;-70
2024/03/19 00:56:37;;;;;;;16.17;11.60;;;;;;;10.34;81.61;96335.13;4986089;28;20184;-69
2024/03/19 00:59:03;;;;;;;15.03;12.17;;;;;;;10.33;81.65;96341.28;4985912;28;20460;-69
2024/03/19 01:01:29;;;;;;;16.83;12.10;;;;;;;10.50;81.23;96335.31;4986023;28;20581;-70
2024/03/19 01:03:54;;;;;;;14.70;10.70;;;;;;;10.45;81.30;96339.91;4989381;28;20180;-68
2024/03/19 01:06:20;;;;;;;13.40;11.00;;;;;;;10.43;81.07;96336.50;4989426;28;20427;-70
2024/03/19 01:08:45;;;;;;;14.57;12.73;;;;;;;10.51;80.86;96328.28;4989404;28;20208;-70
2024/03/19 01:11:10;;;;;;;17.50;12.23;;;;;;;10.54;80.69;96329.00;4989733;28;20239;-69
2024/03/19 01:13:36;;;;;;;15.90;12.00;;;;;;;10.49;81.19;96325.75;4989250;28;20267;-71
2024/03/19 01:16:04;;;;;;;17.00;13.30;;;;;;;10.38;81.65;96326.19;4989182;28;20188;-70
2024/03/19 01:18:30;;;;;;;17.40;12.50;;;;;;;10.47;81.52;96324.09;4988721;28;20212;-70
2024/03/19 01:20:55;;;;;;;17.30;12.47;;;;;;;10.45;80.73;96329.41;4988647;28;20482;-71
2024/03/19 01:23:21;;;;;;;16.77;11.60;;;;;;;10.49;81.01;96319.66;4988485;28;20247;-70
2024/03/19 01:25:46;;;;;;;18.90;13.13;;;;;;;10.41;81.17;96316.50;4988765;28;20758;-70
2024/03/19 01:28:13;;;;;;;19.43;13.20;;;;;;;10.50;81.33;96321.34;4988571;28;20684;-70
2024/03/19 01:30:38;;;;;;;18.70;13.03;;;;;;;10.45;81.47;96321.53;4988753;28;20238;-69
2024/03/19 01:33:04;;;;;;;17.37;12.60;;;;;;;10.50;81.15;96322.19;4988502;28;20407;-71
2024/03/19 01:35:30;;;;;;;18.77;13.90;;;;;;;10.49;80.78;96320.50;4988547;28;20181;-68
2024/03/19 01:37:56;;;;;;;18.10;13.40;;;;;;;10.46;81.55;96325.00;4988131;28;20625;-70
2024/03/19 01:40:22;;;;;;;18.63;13.20;;;;;;;10.46;81.17;96317.13;4988389;28;20419;-69
2024/03/19 01:42:47;;;;;;;17.60;13.60;;;;;;;10.44;81.37;96316.34;4988055;28;20187;-69
2024/03/19 01:45:14;;;;;;;20.00;14.13;;;;;;;10.55;80.60;96316.72;4988365;28;20175;-69
2024/03/19 01:47:42;;;;;;;19.70;12.97;;;;;;;10.44;81.11;96314.59;4988463;28;20223;-69
2024/03/19 01:50:10;;;;;;;18.70;13.97;;;;;;;10.45;81.44;96318.91;4988533;28;21096;-70
2024/03/19 01:52:41;;;;;;;16.83;11.70;;;;;;;10.41;81.40;96321.75;4988651;28;20408;-71
2024/03/19 01:55:08;;;;;;;16.53;11.40;;;;;;;10.38;81.20;96314.88;4988787;28;20444;-70
2024/03/19 01:57:34;;;;;;;15.23;11.10;;;;;;;10.40;81.16;96312.19;4988474;28;20447;-69
2024/03/19 02:00:00;;;;;;;14.53;11.00;;;;;;;10.43;80.54;96314.66;4988151;28;20510;-69
2024/03/19 02:02:36;;;;;;;12.27;10.53;;;;;;;10.45;80.06;96315.44;4987981;28;20538;-70
2024/03/19 02:05:05;;;;;;;15.33;11.20;;;;;;;10.45;80.89;96315.44;4988412;28;20408;-70
2024/03/19 02:07:31;;;;;;;18.13;12.70;;;;;;;10.40;80.45;96313.03;4988563;28;20839;-70
2024/03/19 02:09:56;;;;;;;17.40;13.20;;;;;;;10.35;81.10;96315.84;4988230;28;20506;-71
2024/03/19 02:12:22;;;;;;;17.67;13.00;;;;;;;10.24;81.29;96315.44;4987914;28;20496;-70
2024/03/19 02:14:49;;;;;;;16.93;13.63;;;;;;;10.29;80.97;96321.34;4988501;28;20541;-68
2024/03/19 02:17:14;;;;;;;18.90;13.20;;;;;;;10.28;81.08;96314.44;4987881;28;20439;-70
2024/03/19 02:19:40;;;;;;;18.17;12.60;;;;;;;10.36;80.48;96312.31;4987989;28;20462;-70
2024/03/19 02:22:06;;;;;;;15.43;12.00;;;;;;;10.33;80.62;96314.22;4987663;28;20183;-70
2024/03/19 02:24:32;;;;;;;18.10;13.33;;;;;;;10.32;80.56;96315.13;4987605;28;20184;-69
2024/03/19 02:26:57;;;;;;;22.43;13.13;;;;;;;10.22;80.62;96314.66;4987840;28;20440;-69
2024/03/19 02:29:23;;;;;;;19.10;13.60;;;;;;;10.28;80.35;96309.19;4988178;28;21043;-69
2024/03/19 02:31:48;;;;;;;19.37;14.23;;;;;;;10.26;80.80;96313.59;4988123;28;20200;-70
2024/03/19 02:34:14;;;;;;;15.97;12.70;;;;;;;10.12;81.16;96318.59;4988014;28;20243;-70
2024/03/19 02:36:39;;;;;;;18.90;14.30;;;;;;;10.14;80.79;96308.91;4987813;28;20169;-68
2024/03/19 02:39:04;;;;;;;22.37;14.13;;;;;;;10.18;80.92;96307.81;4988338;28;20585;-69
2024/03/19 02:41:30;;;;;;;23.50;15.13;;;;;;;10.09;81.21;96309.09;4987995;28;20173;-68
2024/03/19 02:43:55;;;;;;;23.70;14.07;;;;;;;10.13;81.12;96310.69;4987910;28;20173;-68
2024/03/19 02:46:22;;;;;;;21.40;13.77;;;;;;;10.11;80.96;96312.50;4987935;28;20199;-69
2024/03/19 02:48:47;;;;;;;24.17;14.17;;;;;;;10.02;81.47;96305.03;4987911;28;20197;-70
2024/03/19 02:51:13;;;;;;;26.93;15.80;;;;;;;10.00;81.69;96311.28;4987864;28;20424;-70
2024/03/19 02:53:38;;;;;;;23.37;15.80;;;;;;;10.00;81.69;96308.66;4987914;28;20177;-70
2024/03/19 02:56:04;;;;;;;26.70;15.03;;;;;;;10.00;81.66;96306.03;4987905;28;20648;-70
2024/03/19 02:58:29;;;;;;;25.80;16.87;;;;;;;9.99;82.53;96314.78;4987859;28;20303;-70
2024/03/19 03:00:55;;;;;;;26.17;17.70;;;;;;;10.13;81.46;96308.06;4988395;28;20212;-70
2024/03/19 03:03:21;;;;;;;27.27;15.10;;;;;;;10.12;81.95;96316.81;4987666;28;20893;-68
2024/03/19 03:05:46;;;;;;;25.63;15.43;;;;;;;10.14;81.20;96320.22;4986333;28;20644;-69
2024/03/19 03:08:11;;;;;;;25.73;15.43;;;;;;;10.09;81.39;96324.00;4987352;28;20771;-70
2024/03/19 03:10:38;;;;;;;24.63;15.63;;;;;;;10.06;81.74;96311.88;4987580;28;20259;-69
2024/03/19 03:13:04;;;;;;;26.73;16.33;;;;;;;10.05;81.90;96311.91;4987067;28;20192;-71
2024/03/19 03:15:29;;;;;;;25.97;15.70;;;;;;;10.07;81.57;96317.94;4987394;28;20424;-69
2024/03/19 03:17:55;;;;;;;27.00;16.30;;;;;;;9.91;81.73;96317.75;4987134;28;20739;-70
2024/03/19 03:20:21;;;;;;;25.53;16.60;;;;;;;10.01;81.65;96323.44;4987428;28;20187;-69
2024/03/19 03:22:46;;;;;;;30.17;16.63;;;;;;;9.98;81.24;96327.06;4987139;28;20231;-70
2024/03/19 03:25:11;;;;;;;32.17;18.83;;;;;;;10.02;81.61;96325.16;4986710;28;20205;-69
2024/03/19 03:27:40;;;;;;;26.97;16.30;;;;;;;10.01;82.03;96336.56;4987154;28;20192;-70
2024/03/19 03:30:08;;;;;;;33.00;18.37;;;;;;;10.00;82.03;96330.47;5002517;28;20161;-69
2024/03/19 03:32:34;;;;;;;27.20;16.60;;;;;;;10.08;81.27;96335.38;4987313;28;20990;-70
2024/03/19 03:35:00;;;;;;;29.50;18.10;;;;;;;10.02;81.91;96327.78;4988069;28;20411;-70
2024/03/19 03:37:25;;;;;;;26.90;17.00;;;;;;;10.03;81.75;96324.25;4987243;28;20456;-70
2024/03/19 03:39:51;;;;;;;28.70;17.90;;;;;;;9.98;82.16;96336.69;4987149;28;20208;-70
2024/03/19 03:42:17;;;;;;;33.60;18.50;;;;;;;9.96;82.00;96334.97;4986787;28;20259;-70
2024/03/19 03:44:43;;;;;;;29.40;18.03;;;;;;;9.96;82.23;96340.22;4986940;28;20238;-70
2024/03/19 03:47:08;;;;;;;30.53;17.00;;;;;;;9.97;82.69;96341.09;4986784;28;20811;-70
2024/03/19 03:49:34;;;;;;;34.43;18.73;;;;;;;10.01;82.43;96337.41;4987041;28;20173;-70
2024/03/19 03:51:59;;;;;;;31.97;16.07;;;;;;;10.02;82.52;96335.66;4986992;28;20547;-70
2024/03/19 03:54:24;;;;;;;24.93;16.50;;;;;;;9.95;82.77;96342.94;4986420;28;20328;-70
2024/03/19 03:56:50;;;;;;;31.23;17.20;;;;;;;9.80;83.07;96354.88;4986740;28;20197;-69
2024/03/19 03:59:15;;;;;;;29.37;17.23;;;;;;;9.88;83.36;96347.56;4986863;28;20197;-71
2024/03/19 04:01:41;;;;;;;30.77;16.97;;;;;;;9.98;82.62;96345.41;4986819;28;20255;-70
2024/03/19 04:04:06;;;;;;;30.03;19.53;;;;;;;9.76;83.69;96348.09;4986999;28;20595;-69
2024/03/19 04:06:31;;;;;;;28.07;15.77;;;;;;;9.88;83.74;96352.81;4987145;28;20288;-69
2024/03/19 04:08:57;;;;;;;28.53;16.27;;;;;;;9.88;83.40;96349.34;4986581;28;20716;-69
2024/03/19 04:11:22;;;;;;;23.70;15.93;;;;;;;10.01;82.64;96347.03;4987121;28;20560;-70
2024/03/19 04:13:48;;;;;;;25.93;16.20;;;;;;;9.98;82.68;96342.78;4989209;28;20183;-70
2024/03/19 04:16:14;;;;;;;31.07;15.80;;;;;;;9.90;82.96;96356.22;4987205;28;20260;-70
2024/03/19 04:18:39;;;;;;;29.97;17.20;;;;;;;9.98;82.82;96350.66;4989875;28;20201;-70
2024/03/19 04:21:05;;;;;;;23.97;15.80;;;;;;;9.94;83.04;96347.31;4987014;28;20187;-70
2024/03/19 04:23:31;;;;;;;24.80;17.13;;;;;;;9.84;83.27;96350.38;4987541;28;20177;-70
2024/03/19 04:25:56;;;;;;;29.33;16.43;;;;;;;9.88;83.51;96347.56;4987065;28;20435;-69
2024/03/19 04:28:22;;;;;;;24.80;16.53;;;;;;;9.93;82.55;96344.75;4987496;28;20204;-69
2024/03/19 04:30:47;;;;;;;26.63;15.93;;;;;;;9.93;82.69;96353.47;4987312;28;20188;-69
2024/03/19 04:33:12;;;;;;;32.57;18.40;;;;;;;10.05;82.34;96348.63;4985813;28;20184;-68
2024/03/19 04:35:38;;;;;;;29.30;16.20;;;;;;;10.04;82.18;96347.78;4987026;28;20533;-70
2024/03/19 04:38:04;;;;;;;29.03;16.40;;;;;;;9.98;82.50;96352.41;4988751;28;20331;-69
2024/03/19 04:40:30;;;;;;;29.40;15.90;;;;;;;9.93;82.70;96363.94;4990319;28;20896;-70
2024/03/19 04:42:56;;;;;;;35.27;17.53;;;;;;;9.91;83.02;96352.66;4990329;28;20439;-69
2024/03/19 04:45:21;;;;;;;31.30;18.40;;;;;;;9.93;82.58;96361.31;4990244;28;20176;-69
2024/03/19 04:47:47;;;;;;;24.27;15.80;;;;;;;9.85;82.80;96352.06;4990130;28;20203;-69
2024/03/19 04:50:13;;;;;;;32.57;16.10;;;;;;;9.92;82.77;96359.63;4990581;28;20232;-70
2024/03/19 04:52:39;;;;;;;23.73;15.87;;;;;;;9.99;82.29;96365.44;4990008;28;20185;-69
2024/03/19 04:55:05;;;;;;;24.80;15.23;;;;;;;10.00;82.25;96350.59;4990035;28;20895;-67
2024/03/19 04:57:30;;;;;;;26.40;16.10;;;;;;;9.82;82.87;96363.53;4990500;28;20205;-69
2024/03/19 04:59:56;;;;;;;29.30;16.43;;;;;;;9.79;82.72;96365.44;4989631;28;20216;-70
2024/03/19 05:02:22;;;;;;;27.10;15.53;;;;;;;9.92;82.75;96361.38;4989789;28;20263;-70
2024/03/19 05:04:47;;;;;;;31.03;17.10;;;;;;;10.13;81.24;96352.63;4990057;28;20206;-69
2024/03/19 05:07:13;;;;;;;29.83;15.10;;;;;;;9.84;82.66;96358.25;4989760;28;20716;-68
2024/03/19 05:09:40;;;;;;;24.17;15.13;;;;;;;9.95;82.08;96356.88;4989700;28;21023;-68
2024/03/19 05:12:05;;;;;;;29.80;17.23;;;;;;;9.92;82.31;96362.25;4989733;28;20271;-69
2024/03/19 05:14:31;;;;;;;27.17;16.10;;;;;;;10.00;82.01;96356.69;4990186;28;20515;-70
2024/03/19 05:16:56;;;;;;;29.00;15.17;;;;;;;10.06;81.38;96353.81;4989763;28;20184;-70
2024/03/19 05:19:22;;;;;;;30.50;17.30;;;;;;;10.15;81.57;96357.78;4990012;28;20208;-69
2024/03/19 05:21:48;;;;;;;29.73;16.97;;;;;;;10.05;81.60;96359.13;4989671;28;20177;-69
2024/03/19 05:24:13;;;;;;;28.23;15.13;;;;;;;10.03;81.62;96356.53;4989271;28;20184;-70
2024/03/19 05:26:38;;;;;;;30.30;15.23;;;;;;;10.13;81.60;96354.38;4989432;28;20204;-70
2024/03/19 05:29:04;;;;;;;31.77;15.10;;;;;;;10.11;80.98;96357.09;4989329;28;20234;-68
2024/03/19 05:31:29;;;;;;;34.40;16.53;;;;;;;9.95;81.89;96362.13;4988765;28;20175;-70
2024/03/19 05:33:56;;;;;;;27.67;15.63;;;;;;;9.75;83.76;96359.47;4985921;28;20177;-70
2024/03/19 05:36:22;;;;;;;27.80;15.10;;;;;;;9.74;83.11;96363.00;4983957;28;20264;-71
2024/03/19 05:38:48;;;;;;;21.40;15.10;;;;;;;10.00;82.06;96363.69;4987522;28;20474;-71
2024/03/19 05:41:15;;;;;;;24.40;15.83;;;;;;;10.06;81.74;96363.44;4988315;28;20420;-71
2024/03/19 05:43:45;;;;;;;27.77;16.70;;;;;;;10.01;81.80;96368.84;4988760;28;20169;-73
2024/03/19 05:46:10;;;;;;;23.10;15.63;;;;;;;9.95;81.89;96377.00;4987692;28;20447;-71
2024/03/19 05:48:37;;;;;;;25.37;16.00;;;;;;;9.79;82.72;96371.53;4986404;28;20475;-70
2024/03/19 05:51:07;;;;;;;26.97;14.83;;;;;;;9.75;83.28;96377.81;4987386;28;20175;-69
2024/03/19 05:53:34;;;;;;;25.70;15.60;;;;;;;9.99;82.50;96375.09;4987160;28;20448;-69
2024/03/19 05:56:01;;;;;;;26.53;14.77;;;;;;;10.01;82.27;96378.50;4987561;28;20435;-70
2024/03/19 05:58:26;;;;;;;25.23;14.13;;;;;;;10.06;82.17;96381.78;4986958;28;20522;-68
2024/03/19 06:00:52;;;;;;;27.50;15.50;;;;;;;10.18;81.54;96387.38;4986619;28;21031;-71
2024/03/19 06:03:17;;;;;;;27.97;15.13;;;;;;;10.12;81.76;96381.53;4985407;28;20224;-70
2024/03/19 06:05:43;;;;;;;31.67;17.60;;;;;;;10.23;81.18;96392.44;4987033;28;20187;-70
2024/03/19 06:08:08;;;;;;;29.30;16.50;;;;;;;10.18;81.41;96394.38;4986932;28;20208;-71
2024/03/19 06:10:34;;;;;;;28.63;17.07;;;;;;;10.11;81.36;96385.06;4986964;28;20173;-69
2024/03/19 06:12:59;;;;;;;27.13;16.43;;;;;;;10.11;81.95;96392.91;4986611;28;20181;-70
2024/03/19 06:15:27;;;;;;;26.33;15.50;;;;;;;10.21;81.69;96391.63;4985803;28;20217;-71
2024/03/19 06:17:52;;;;;;;21.97;14.47;;;;;;;10.21;81.33;96388.16;4992039;28;20207;-70
2024/03/19 06:20:18;;;;;;;27.43;15.40;;;;;;;10.30;81.90;96391.28;4986672;28;20465;-69
2024/03/19 06:22:44;;;;;;;28.13;16.20;;;;;;;10.26;81.36;96387.03;4986138;28;20181;-71
2024/03/19 06:25:10;;;;;;;31.67;15.80;;;;;;;10.07;81.82;96392.22;4991365;28;20185;-71
2024/03/19 06:27:36;;;;;;;27.90;16.97;;;;;;;10.25;81.88;96387.09;4999358;28;20521;-70
2024/03/19 06:30:02;;;;;;;32.80;16.47;;;;;;;10.28;81.00;96386.97;4997064;28;20173;-71
2024/03/19 06:32:27;;;;;;;30.60;14.83;;;;;;;10.22;81.61;96392.47;4992999;28;20431;-72
2024/03/19 06:34:53;;;;;;;29.73;16.70;;;;;;;10.16;81.77;96396.22;4994061;28;20190;-70
2024/03/19 06:37:20;;;;;;;30.20;14.37;;;;;;;10.35;81.55;96394.53;4994085;28;20232;-69
2024/03/19 06:39:45;;;;;;;26.60;13.20;;;;;;;10.30;80.91;96401.75;4996083;28;20874;-71
2024/03/19 06:42:10;;;;;;;26.93;15.17;;;;;;;10.18;81.41;96404.84;4991161;28;20462;-71
2024/03/19 06:44:36;;;;;;;20.37;13.80;;;;;;;10.45;80.35;96408.13;4985424;28;20183;-71
2024/03/19 06:47:01;;;;;;;20.63;13.53;;;;;;;10.22;81.17;96409.06;4992561;28;20253;-71
2024/03/19 06:49:27;;;;;;;29.63;16.13;;;;;;;10.30;80.27;96407.00;4991339;28;20181;-70
2024/03/19 06:51:52;;;;;;;24.00;13.20;;;;;;;10.36;80.46;96401.47;4985184;28;20184;-70
2024/03/19 06:54:17;;;;;;;29.50;16.57;;;;;;;10.45;79.91;96402.88;4985310;28;20180;-71
2024/03/19 06:56:43;;;;;;;21.90;13.87;;;;;;;10.26;79.77;96409.78;4985697;28;20188;-70
2024/03/19 06:59:10;;;;;;;22.10;13.50;;;;;;;10.16;80.81;96406.72;4985751;28;20254;-70
2024/03/19 07:01:36;;;;;;;21.30;13.10;;;;;;;10.37;80.26;96402.38;4985078;28;20256;-70
2024/03/19 07:04:03;;;;;;;22.90;14.60;;;;;;;10.48;80.45;96404.50;4985456;28;20449;-70
2024/03/19 07:06:29;;;;;;;25.80;16.17;;;;;;;10.46;79.67;96401.94;4985412;28;20485;-71
2024/03/19 07:08:55;;;;;;;23.43;13.90;;;;;;;10.58;79.33;96403.19;4984622;28;20432;-70
2024/03/19 07:11:20;;;;;;;29.40;15.97;;;;;;;10.57;79.36;96407.56;4985072;28;20411;-70
2024/03/19 07:13:46;;;;;;;26.33;14.83;;;;;;;10.60;78.62;96406.59;4985075;28;20177;-71
2024/03/19 07:16:11;;;;;;;24.40;13.10;;;;;;;10.71;78.47;96404.34;4985687;28;20169;-70
2024/03/19 07:18:36;;;;;;;20.00;13.30;;;;;;;10.67;78.63;96405.41;4985398;28;20205;-71
2024/03/19 07:21:02;;;;;;;24.07;15.13;;;;;;;10.60;78.67;96409.22;4985568;28;20173;-71
2024/03/19 07:23:27;;;;;;;22.03;13.50;;;;;;;10.57;78.35;96409.34;4984901;28;20620;-71
2024/03/19 07:25:55;;;;;;;22.50;14.13;;;;;;;10.49;78.11;96412.31;4985348;28;20187;-70
2024/03/19 07:28:20;;;;;;;26.70;13.53;;;;;;;10.34;79.84;96424.31;4984454;28;20188;-71
2024/03/19 07:30:46;;;;;;;24.53;15.07;;;;;;;10.53;79.18;96419.13;4985846;28;20420;-70
2024/03/19 07:33:11;;;;;;;31.07;17.83;;;;;;;10.26;80.04;96413.25;4985649;28;20185;-69
2024/03/19 07:35:37;;;;;;;21.80;14.07;;;;;;;10.58;78.59;96417.16;4985157;28;20575;-71
2024/03/19 07:38:07;;;;;;;19.03;13.20;;;;;;;10.66;78.35;96424.69;4985933;28;20211;-70
2024/03/19 07:40:33;;;;;;;20.30;13.60;;;;;;;10.79;77.48;96425.00;4987127;28;21304;-70
2024/03/19 07:42:59;;;;;;;21.40;13.73;;;;;;;10.61;77.97;96424.06;4986513;28;20424;-69
2024/03/19 07:45:25;;;;;;;17.97;11.87;;;;;;;10.29;79.20;96436.75;4986415;28;20199;-71
2024/03/19 07:47:50;;;;;;;18.80;11.97;;;;;;;10.51;78.53;96434.09;4986749;28;20219;-70
2024/03/19 07:50:22;;;;;;;18.20;10.90;;;;;;;10.72;76.88;96432.28;4986748;28;20470;-71
2024/03/19 07:52:47;;;;;;;17.40;12.03;;;;;;;10.59;77.40;96428.50;4986833;28;20227;-71
2024/03/19 07:55:12;;;;;;;18.07;11.33;;;;;;;10.68;77.49;96429.91;4987141;28;20998;-74
2024/03/19 07:57:38;;;;;;;28.30;13.40;;;;;;;10.87;76.41;96432.56;4986525;28;20192;-69
2024/03/19 08:00:11;;;;;;;18.50;11.60;;;;;;;10.70;77.26;96438.53;4986596;28;20208;-70
2024/03/19 08:02:38;;;;;;;20.03;12.70;;;;;;;10.80;77.24;96435.44;4966866;28;20220;-69
2024/03/19 08:05:04;;;;;;;25.53;18.13;;;;;;;10.81;77.53;96437.13;4966663;28;20409;-71
2024/03/19 08:07:31;;;;;;;19.27;13.73;;;;;;;10.73;77.20;96444.50;4966999;28;20433;-70
2024/03/19 08:09:56;;;;;;;30.83;14.20;;;;;;;10.54;78.51;96441.00;4967696;28;20409;-71
2024/03/19 08:12:23;;;;;;;17.43;11.87;;;;;;;10.33;79.51;96446.22;4971077;28;20436;-71
2024/03/19 08:14:48;;;;;;;24.53;12.23;;;;;;;10.73;78.17;96439.25;4972103;28;20185;-72
2024/03/19 08:17:13;;;;;;;17.37;12.27;;;;;;;10.80;76.97;96438.06;4970967;28;20438;-70
2024/03/19 08:19:39;;;;;;;21.33;11.63;;;;;;;10.91;76.68;96439.34;4985597;28;20269;-69
2024/03/19 08:22:05;;;;;;;17.33;11.20;;;;;;;10.91;75.97;96440.19;4986501;28;20536;-70
2024/03/19 08:24:32;;;;;;;26.43;12.10;;;;;;;10.99;76.13;96447.75;4970903;28;20898;-71
2024/03/19 08:26:57;;;;;;;22.10;12.83;;;;;;;10.93;75.89;96445.41;4970475;28;20237;-71
2024/03/19 08:29:23;;;;;;;25.73;12.03;;;;;;;11.05;76.27;96450.09;4984987;28;20416;-71
2024/03/19 08:31:48;;;;;;;19.57;12.53;;;;;;;11.13;76.12;96445.38;4970135;28;20895;-70
2024/03/19 08:34:14;;;;;;;18.00;10.47;;;;;;;10.65;77.41;96449.22;4970398;28;20185;-70
2024/03/19 08:36:39;;;;;;;17.67;10.90;;;;;;;10.96;76.65;96455.75;4970408;28;20174;-70
2024/03/19 08:39:05;;;;;;;18.93;11.40;;;;;;;10.88;77.36;96460.50;4970667;28;20201;-71
2024/03/19 08:41:30;;;;;;;18.20;11.07;;;;;;;10.57;78.33;96461.84;4969944;28;20176;-71
2024/03/19 08:43:56;;;;;;;19.63;12.77;;;;;;;10.68;77.76;96456.13;4969889;28;20184;-71
2024/03/19 08:46:22;;;;;;;19.80;13.60;;;;;;;10.78;77.28;96455.66;4969780;28;20178;-70
2024/03/19 08:48:48;;;;;;;17.57;13.07;;;;;;;10.91;76.67;96463.81;4969818;28;20240;-71
2024/03/19 08:51:14;;;;;;;15.77;11.23;;;;;;;11.06;76.77;96470.19;4969249;28;20203;-69
2024/03/19 08:53:40;;;;;;;17.97;12.23;;;;;;;11.13;75.75;96462.91;4969358;28;21249;-71
2024/03/19 08:56:06;;;;;;;16.30;12.07;;;;;;;11.14;75.93;96470.69;4969533;28;20409;-70
2024/03/19 08:58:31;;;;;;;16.03;11.60;;;;;;;11.04;76.45;96461.53;4988902;28;20242;-71
2024/03/19 09:00:56;;;;;;;24.27;12.70;;;;;;;11.13;76.75;96471.63;5001389;28;20994;-70
2024/03/19 09:03:22;;;;;;;16.97;11.13;;;;;;;11.27;75.75;96463.13;5007511;28;20267;-71
2024/03/19 09:05:55;;;;;;;22.97;12.90;;;;;;;11.38;75.00;96462.63;5008420;28;20259;-72
2024/03/19 09:08:20;;;;;;;18.37;11.77;;;;;;;11.39;74.50;96465.19;5008118;28;20195;-71
2024/03/19 09:10:46;;;;;;;19.20;12.10;;;;;;;11.39;74.98;96464.34;4988010;28;20927;-71
2024/03/19 09:13:11;;;;;;;20.87;13.13;;;;;;;11.44;75.15;96471.06;4987839;28;20213;-73
2024/03/19 09:15:37;;;;;;;20.47;12.20;;;;;;;11.48;74.75;96474.44;4986849;28;20177;-71
2024/03/19 09:18:02;;;;;;;17.53;12.17;;;;;;;11.48;74.47;96479.69;4986609;28;20207;-69
2024/03/19 09:20:27;;;;;;;20.17;10.50;;;;;;;11.49;75.11;96478.75;4987963;28;20992;-72
2024/03/19 09:22:53;;;;;;;26.93;12.17;;;;;;;11.58;74.28;96475.69;5001503;28;20722;-70
2024/03/19 09:25:18;;;;;;;17.90;12.00;;;;;;;11.60;74.06;96483.50;4990406;28;20306;-71
2024/03/19 09:27:44;;;;;;;20.00;11.47;;;;;;;11.50;74.07;96485.69;4993505;28;20232;-70
2024/03/19 09:30:10;;;;;;;19.13;12.20;;;;;;;11.55;73.07;96486.34;4997883;28;20180;-68
2024/03/19 09:32:36;;;;;;;16.53;11.40;;;;;;;11.50;73.31;96487.47;4987842;28;20542;-70
2024/03/19 09:35:03;;;;;;;17.07;11.13;;;;;;;11.55;73.26;96474.97;4996377;28;20534;-72
2024/03/19 09:37:29;;;;;;;22.70;11.43;;;;;;;11.71;73.59;96475.09;4988937;28;20211;-70
2024/03/19 09:39:54;;;;;;;15.53;10.77;;;;;;;11.99;72.58;96477.31;4984278;28;20855;-70
2024/03/19 09:42:24;;;;;;;25.20;11.03;;;;;;;11.95;72.61;96481.88;4989012;28;20732;-70
2024/03/19 09:44:52;;;;;;;28.17;11.20;;;;;;;11.86;72.91;96477.03;4998255;28;20657;-69
2024/03/19 09:47:20;;;;;;;15.50;11.70;;;;;;;11.79;72.11;96483.50;5007429;28;20439;-70
2024/03/19 09:49:46;;;;;;;15.73;9.30;;;;;;;11.65;73.07;96485.00;4991155;28;20475;-72
2024/03/19 09:52:13;;;;;;;19.47;11.40;;;;;;;11.97;72.18;96485.25;5010310;28;21141;-71
2024/03/19 09:54:39;;;;;;;13.50;10.00;;;;;;;11.66;72.18;96484.06;4986425;28;20184;-69
2024/03/19 09:57:13;;;;;;;13.17;9.00;;;;;;;12.01;71.02;96478.09;4992142;28;20464;-70
2024/03/19 09:59:39;;;;;;;15.90;10.50;;;;;;;12.13;70.90;96472.22;4986177;28;20215;-71
2024/03/19 10:02:15;;;;;;;12.23;8.47;;;;;;;12.17;70.17;96468.53;4984493;28;20439;-71
2024/03/19 10:04:46;;;;;;;13.73;8.63;;;;;;;12.27;69.41;96474.19;4986339;28;21116;-70
2024/03/19 10:07:15;;;;;;;13.87;8.60;;;;;;;12.40;68.37;96467.41;4986097;28;20571;-70
2024/03/19 10:09:45;;;;;;;15.20;8.60;;;;;;;12.22;69.15;96468.31;4996591;28;20419;-71
2024/03/19 10:12:12;;;;;;;13.00;9.23;;;;;;;12.29;69.03;96470.56;4998752;28;20413;-72
2024/03/19 10:14:38;;;;;;;14.93;8.50;;;;;;;12.47;69.61;96466.16;4992954;28;20427;-71
2024/03/19 10:17:04;;;;;;;13.00;9.23;;;;;;;12.59;68.87;96456.78;4989354;28;20481;-71
2024/03/19 10:19:30;;;;;;;13.97;9.20;;;;;;;12.62;68.09;96455.78;4987127;28;20499;-70
2024/03/19 10:21:55;;;;;;;12.77;7.53;;;;;;;12.77;68.20;96467.28;4984894;28;20185;-71
2024/03/19 10:24:21;;;;;;;12.67;9.27;;;;;;;12.75;67.41;96463.88;4985003;28;20181;-71
2024/03/19 10:26:46;;;;;;;15.63;8.70;;;;;;;12.78;67.69;96459.34;4984766;28;20288;-71
2024/03/19 10:29:14;;;;;;;17.17;8.33;;;;;;;12.97;66.74;96458.34;4984926;28;20357;-69
2024/03/19 10:31:40;;;;;;;12.60;9.00;;;;;;;12.58;68.35;96459.50;4985039;28;20208;-69
2024/03/19 10:34:14;;;;;;;11.30;8.10;;;;;;;12.87;67.45;96461.50;4987160;28;20415;-72
2024/03/19 10:36:42;;;;;;;14.87;9.17;;;;;;;12.87;67.63;96460.63;4985646;28;20432;-70
2024/03/19 10:39:09;;;;;;;10.47;8.40;;;;;;;12.72;67.59;96454.38;4987051;28;20475;-71
2024/03/19 10:41:35;;;;;;;12.93;7.50;;;;;;;12.73;67.73;96453.44;4981298;28;20816;-71
2024/03/19 10:44:01;;;;;;;12.33;8.23;;;;;;;13.53;66.18;96455.34;4985823;28;20444;-71
2024/03/19 10:46:29;;;;;;;10.70;7.53;;;;;;;13.67;64.63;96449.31;4985439;28;20232;-65
2024/03/19 10:48:55;;;;;;;10.20;7.87;;;;;;;13.13;65.61;96438.16;4993776;28;20204;-70
2024/03/19 10:51:22;;;;;;;15.80;8.80;;;;;;;12.96;66.47;96449.59;5000253;28;20415;-71
2024/03/19 10:53:48;;;;;;;12.07;8.90;;;;;;;12.36;68.81;96452.69;5001695;28;20416;-71
2024/03/19 10:56:14;;;;;;;10.53;8.63;;;;;;;12.68;68.21;96458.97;4995239;28;21276;-70
2024/03/19 10:58:40;;;;;;;9.37;7.33;;;;;;;12.37;69.20;96456.16;4984307;28;20873;-70
2024/03/19 11:01:06;;;;;;;11.43;8.10;;;;;;;12.62;68.57;96453.16;4985362;28;20428;-70
2024/03/19 11:03:31;;;;;;;12.20;7.63;;;;;;;12.93;66.45;96452.41;4987505;28;20184;-70
2024/03/19 11:06:05;;;;;;;11.63;8.17;;;;;;;13.24;65.85;96446.34;4986145;28;20247;-71
2024/03/19 11:08:37;;;;;;;23.40;9.90;;;;;;;13.33;66.04;96448.53;4986372;28;20189;-70
2024/03/19 11:11:11;;;;;;;17.17;10.03;;;;;;;13.63;64.97;96442.53;4985430;28;21012;-70
2024/03/19 11:13:37;;;;;;;31.07;9.00;;;;;;;13.67;65.03;96438.75;4985065;28;20447;-71